createdAt,value
2023-01-07T00:01:06.312Z,70.77
2023-01-07T00:03:34.737Z,70.50
2023-01-07T00:06:03.690Z,70.32
2023-01-07T00:08:32.525Z,69.93
2023-01-07T00:11:02.804Z,70.32
2023-01-07T00:13:30.827Z,70.57
2023-01-07T00:15:59.677Z,70.61
2023-01-07T00:18:29.197Z,70.97
2023-01-07T00:20:58.799Z,70.52
2023-01-07T00:23:27.193Z,70.29
2023-01-07T00:26:02.065Z,70.42
2023-01-07T00:28:30.070Z,70.29
2023-01-07T00:31:01.289Z,70.57
2023-01-07T00:33:31.185Z,70.60
2023-01-07T00:36:03.194Z,70.79
2023-01-07T00:38:31.198Z,70.86
2023-01-07T00:40:59.289Z,70.63
2023-01-07T00:43:27.679Z,70.22
2023-01-07T00:45:55.842Z,70.33
2023-01-07T00:48:24.117Z,70.39
2023-01-07T00:50:54.493Z,70.19
2023-01-07T00:53:22.983Z,70.13
2023-01-07T00:55:51.937Z,69.66
2023-01-07T00:58:22.277Z,69.59
2023-01-07T01:00:50.721Z,70.29
2023-01-07T01:03:18.829Z,70.73
2023-01-07T01:05:46.953Z,70.62
2023-01-07T01:08:17.997Z,70.67
2023-01-07T01:10:46.182Z,70.31
2023-01-07T01:13:18.097Z,70.28
2023-01-07T01:15:47.436Z,69.77
2023-01-07T01:18:16.508Z,69.90
2023-01-07T01:20:44.530Z,70.29
2023-01-07T01:23:12.582Z,70.14
2023-01-07T01:25:41.965Z,69.63
2023-01-07T01:28:09.953Z,70.69
2023-01-07T01:30:38.106Z,70.14
2023-01-07T01:33:06.125Z,70.36
2023-01-07T01:35:34.064Z,70.22
2023-01-07T01:38:02.240Z,69.83
2023-01-07T01:40:32.815Z,70.28
2023-01-07T01:43:02.275Z,70.03
2023-01-07T01:45:31.251Z,69.51
2023-01-07T01:48:04.434Z,69.74
2023-01-07T01:50:38.350Z,69.66
2023-01-07T01:53:11.953Z,69.38
2023-01-07T01:55:44.665Z,69.67
2023-01-07T01:58:17.556Z,69.38
2023-01-07T02:00:46.035Z,69.59
2023-01-07T02:03:17.830Z,69.15
2023-01-07T02:05:47.403Z,69.35
2023-01-07T02:08:21.972Z,69.51
2023-01-07T02:10:59.543Z,69.05
2023-01-07T02:13:39.124Z,69.22
2023-01-07T02:16:17.978Z,69.39
2023-01-07T02:19:16.487Z,69.31
2023-01-07T02:21:57.208Z,69.00
2023-01-07T02:24:55.044Z,69.25
2023-01-07T02:27:46.293Z,68.86
2023-01-07T02:30:41.087Z,69.24
2023-01-07T02:33:38.802Z,69.05
2023-01-07T02:36:16.995Z,69.19
2023-01-07T02:39:01.843Z,68.72
2023-01-07T02:41:40.453Z,68.95
2023-01-07T02:44:21.290Z,68.89
2023-01-07T02:46:57.231Z,68.85
2023-01-07T02:49:25.209Z,68.81
2023-01-07T02:51:54.580Z,68.84
2023-01-07T02:54:25.292Z,69.24
2023-01-07T02:57:33.306Z,69.70
2023-01-07T03:00:15.071Z,69.41
2023-01-07T03:03:03.000Z,69.49
2023-01-07T03:05:58.634Z,70.03
2023-01-07T03:08:44.254Z,70.07
2023-01-07T03:11:13.285Z,70.18
2023-01-07T03:13:48.547Z,70.31
2023-01-07T03:16:22.972Z,69.96
2023-01-07T03:18:57.073Z,70.46
2023-01-07T03:21:28.729Z,70.86
2023-01-07T03:23:59.994Z,71.46
2023-01-07T03:26:32.411Z,71.11
2023-01-07T03:29:02.991Z,70.48
2023-01-07T03:31:32.365Z,70.36
2023-01-07T03:34:04.805Z,70.14
2023-01-07T03:36:38.123Z,68.97
2023-01-07T03:39:10.800Z,69.24
2023-01-07T03:41:53.735Z,69.30
2023-01-07T03:44:21.882Z,69.31
2023-01-07T03:46:50.159Z,68.87
2023-01-07T03:49:18.200Z,68.66
2023-01-07T03:51:46.710Z,67.99
2023-01-07T03:54:16.204Z,68.11
2023-01-07T03:56:44.366Z,67.79
2023-01-07T03:59:12.440Z,68.38
2023-01-07T04:01:40.524Z,68.13
2023-01-07T04:04:08.727Z,68.82
2023-01-07T04:06:36.741Z,69.01
2023-01-07T04:09:04.969Z,68.30
2023-01-07T04:11:34.387Z,68.77
2023-01-07T04:14:02.441Z,68.97
2023-01-07T04:16:30.677Z,69.12
2023-01-07T04:18:58.745Z,68.44
2023-01-07T04:21:26.743Z,68.82
2023-01-07T04:23:54.708Z,68.42
2023-01-07T04:26:22.670Z,68.34
2023-01-07T04:28:52.024Z,68.56
2023-01-07T04:31:20.105Z,68.66
2023-01-07T04:33:48.108Z,68.59
2023-01-07T04:36:16.490Z,68.10
2023-01-07T04:38:44.473Z,67.88
2023-01-07T04:41:12.407Z,67.40
2023-01-07T04:43:40.363Z,67.21
2023-01-07T04:46:09.906Z,66.96
2023-01-07T04:48:37.978Z,67.22
2023-01-07T04:51:06.221Z,66.65
2023-01-07T04:53:34.286Z,66.50
2023-01-07T04:56:02.244Z,66.42
2023-01-07T04:58:30.234Z,65.99
2023-01-07T05:00:59.915Z,66.29
2023-01-07T05:03:29.304Z,66.29
2023-01-07T05:05:57.368Z,66.50
2023-01-07T05:08:25.389Z,66.04
2023-01-07T05:10:54.240Z,65.96
2023-01-07T05:13:24.200Z,65.51
2023-01-07T05:15:52.171Z,64.66
2023-01-07T05:18:20.165Z,65.11
2023-01-07T05:20:49.543Z,64.71
2023-01-07T05:23:17.527Z,64.80
2023-01-07T05:25:45.583Z,64.04
2023-01-07T05:28:13.546Z,63.64
2023-01-07T05:30:41.557Z,63.29
2023-01-07T05:33:09.598Z,63.87
2023-01-07T05:35:37.665Z,63.74
2023-01-07T05:38:07.154Z,63.98
2023-01-07T05:40:35.287Z,64.14
2023-01-07T05:43:03.363Z,64.16
2023-01-07T05:45:31.473Z,65.24
2023-01-07T05:47:59.530Z,67.03
2023-01-07T05:50:27.648Z,66.77
2023-01-07T05:52:55.634Z,65.76
2023-01-07T05:55:25.052Z,65.51
2023-01-07T05:57:53.000Z,65.23
2023-01-07T06:00:21.145Z,65.55
2023-01-07T06:02:49.124Z,66.17
2023-01-07T06:05:17.187Z,66.20
2023-01-07T06:07:45.158Z,66.04
2023-01-07T06:10:13.164Z,66.06
2023-01-07T06:12:44.922Z,65.99
2023-01-07T06:15:13.165Z,65.99
2023-01-07T06:17:41.233Z,65.23
2023-01-07T06:20:10.197Z,66.20
2023-01-07T06:22:38.210Z,66.59
2023-01-07T06:25:06.855Z,67.12
2023-01-07T06:27:34.827Z,69.05
2023-01-07T06:30:04.600Z,67.55
2023-01-07T06:32:32.799Z,67.17
2023-01-07T06:35:00.762Z,66.86
2023-01-07T06:37:28.764Z,67.55
2023-01-07T06:39:58.235Z,67.32
2023-01-07T06:42:26.343Z,67.20
2023-01-07T06:44:54.509Z,67.58
2023-01-07T06:47:28.222Z,67.43
2023-01-07T06:49:56.405Z,67.21
2023-01-07T06:52:25.300Z,67.30
2023-01-07T06:54:53.928Z,67.69
2023-01-07T06:57:25.288Z,67.21
2023-01-07T06:59:54.096Z,66.65
2023-01-07T07:02:25.667Z,67.17
2023-01-07T07:04:54.681Z,67.21
2023-01-07T07:07:24.139Z,67.12
2023-01-07T07:09:52.771Z,67.08
2023-01-07T07:12:23.436Z,66.46
2023-01-07T07:14:51.905Z,66.61
2023-01-07T07:17:20.806Z,66.46
2023-01-07T07:19:51.142Z,66.68
2023-01-07T07:22:20.260Z,66.49
2023-01-07T07:24:49.136Z,65.87
2023-01-07T07:27:20.837Z,65.89
2023-01-07T07:29:49.686Z,66.11
2023-01-07T07:32:18.264Z,66.18
2023-01-07T07:34:46.704Z,65.98
2023-01-07T07:37:19.403Z,67.87
2023-01-07T07:39:48.150Z,67.18
2023-01-07T07:42:16.776Z,67.25
2023-01-07T07:44:45.596Z,66.71
2023-01-07T07:47:15.634Z,66.49
2023-01-07T07:49:43.641Z,67.23
2023-01-07T07:52:12.013Z,67.29
2023-01-07T07:54:50.553Z,66.73
2023-01-07T07:57:18.799Z,66.06
2023-01-07T07:59:46.786Z,65.37
2023-01-07T08:02:15.666Z,64.88
2023-01-07T08:04:46.059Z,64.78
2023-01-07T08:07:15.231Z,65.33
2023-01-07T08:10:02.416Z,64.94
2023-01-07T08:12:30.503Z,65.01
2023-01-07T08:14:58.505Z,64.24
2023-01-07T08:17:26.508Z,64.26
2023-01-07T08:19:54.484Z,63.97
2023-01-07T08:22:22.437Z,64.02
2023-01-07T08:24:50.460Z,63.81
2023-01-07T08:27:20.032Z,63.19
2023-01-07T08:29:48.072Z,62.86
2023-01-07T08:32:16.427Z,62.33
2023-01-07T08:34:44.504Z,61.50
2023-01-07T08:37:15.277Z,61.88
2023-01-07T08:39:43.360Z,61.25
2023-01-07T08:42:11.567Z,60.96
2023-01-07T08:44:40.952Z,60.66
2023-01-07T08:47:08.971Z,59.77
2023-01-07T08:49:37.204Z,59.75
2023-01-07T08:52:05.551Z,59.53
2023-01-07T08:54:33.569Z,59.31
2023-01-07T08:57:01.717Z,59.09
2023-01-07T08:59:29.780Z,59.32
2023-01-07T09:01:59.298Z,56.88
2023-01-07T09:04:27.488Z,58.07
2023-01-07T09:06:55.613Z,56.79
2023-01-07T09:09:23.598Z,56.46
2023-01-07T09:11:51.593Z,56.98
2023-01-07T09:14:19.738Z,55.83
2023-01-07T09:16:47.928Z,55.92
2023-01-07T09:19:17.709Z,55.19
2023-01-07T09:21:47.285Z,54.15
2023-01-07T09:24:15.280Z,52.92
2023-01-07T09:26:43.782Z,53.50
2023-01-07T09:29:12.137Z,53.79
2023-01-07T09:31:40.216Z,52.73
2023-01-07T09:34:08.425Z,52.48
2023-01-07T09:36:37.812Z,52.95
2023-01-07T09:39:05.839Z,51.67
2023-01-07T09:41:42.655Z,52.41
2023-01-07T09:44:20.161Z,52.28
2023-01-07T09:46:51.402Z,51.45
2023-01-07T09:49:20.551Z,51.04
2023-01-07T09:51:55.805Z,50.48
2023-01-07T09:54:30.776Z,49.86
2023-01-07T09:56:58.949Z,49.70
2023-01-07T09:59:27.076Z,50.16
2023-01-07T10:02:01.737Z,50.88
2023-01-07T10:04:39.395Z,50.81
2023-01-07T10:07:25.031Z,50.69
2023-01-07T10:10:06.348Z,51.36
2023-01-07T10:12:41.837Z,49.57
2023-01-07T10:15:24.134Z,49.40
2023-01-07T10:18:06.871Z,48.82
2023-01-07T10:20:45.347Z,48.03
2023-01-07T10:23:21.750Z,47.43
2023-01-07T10:25:52.119Z,47.47
2023-01-07T10:28:24.047Z,47.00
2023-01-07T10:30:53.039Z,45.89
2023-01-07T10:33:25.393Z,45.60
2023-01-07T10:36:02.475Z,46.32
2023-01-07T10:38:36.406Z,45.94
2023-01-07T10:41:13.965Z,45.46
2023-01-07T10:46:48.763Z,44.85
2023-01-07T10:49:31.606Z,43.26
2023-01-07T10:52:13.817Z,44.19
2023-01-07T10:55:04.514Z,45.00
2023-01-07T10:57:36.064Z,44.88
2023-01-07T11:00:08.008Z,44.67
2023-01-07T11:02:36.035Z,44.50
2023-01-07T11:05:04.330Z,44.49
2023-01-07T12:12:34.699Z,45.64
2023-01-07T12:15:23.934Z,45.86
2023-01-07T12:18:49.509Z,44.75
2023-01-07T12:21:48.331Z,45.15
2023-01-07T12:24:56.781Z,45.20
2023-01-07T12:27:57.693Z,46.04
2023-01-07T12:31:07.696Z,46.30
2023-01-07T12:34:05.998Z,46.97
2023-01-07T12:38:55.626Z,48.62
2023-01-07T12:41:31.471Z,49.97
2023-01-07T12:44:03.697Z,49.58
2023-01-07T12:46:40.130Z,50.20
2023-01-07T12:49:14.167Z,48.84
2023-01-07T12:51:46.588Z,50.05
2023-01-07T12:54:21.396Z,50.44
2023-01-07T12:56:54.757Z,50.28
2023-01-07T12:59:45.579Z,50.10
2023-01-07T13:02:25.091Z,51.39
2023-01-07T13:05:04.913Z,51.47
2023-01-07T13:07:40.112Z,51.31
2023-01-07T13:10:17.708Z,50.78
2023-01-07T13:12:47.492Z,51.35
2023-01-07T13:15:26.864Z,51.14
2023-01-07T13:17:57.059Z,52.28
2023-01-07T13:20:53.912Z,52.75
2023-01-07T13:23:27.082Z,52.55
2023-01-07T13:26:20.915Z,52.55
2023-01-07T13:29:03.807Z,53.45
2023-01-07T13:32:24.747Z,52.22
2023-01-07T13:35:26.136Z,51.92
2023-01-07T13:38:14.495Z,52.18
2023-01-07T13:41:01.585Z,51.94
2023-01-07T13:43:43.639Z,51.99
2023-01-07T13:46:14.806Z,52.69
2023-01-07T13:48:49.645Z,52.16
2023-01-07T13:51:25.124Z,51.26
2023-01-07T13:53:53.252Z,50.92
2023-01-07T13:56:36.752Z,50.57
2023-01-07T13:59:30.072Z,50.51
2023-01-07T14:02:22.088Z,51.81
2023-01-07T14:05:04.260Z,52.12
2023-01-07T14:07:32.929Z,51.69
2023-01-07T14:10:00.971Z,51.42
2023-01-07T14:13:07.967Z,51.13
2023-01-07T14:16:06.293Z,51.28
2023-01-07T14:18:46.187Z,50.86
2023-01-07T14:21:36.856Z,50.07
2023-01-07T14:24:33.194Z,50.05
2023-01-07T14:27:11.559Z,49.51
2023-01-07T14:29:42.917Z,49.34
2023-01-07T14:32:27.009Z,49.13
2023-01-07T14:34:57.916Z,49.24
2023-01-07T14:37:35.563Z,48.61
2023-01-07T14:40:42.784Z,49.12
2023-01-07T14:43:48.052Z,49.60
2023-01-07T14:46:45.497Z,49.92
2023-01-07T14:50:04.184Z,50.50
2023-01-07T14:53:17.404Z,51.37
2023-01-07T14:56:02.120Z,51.75
2023-01-07T14:58:42.562Z,51.47
2023-01-07T15:01:38.059Z,51.33
2023-01-07T15:04:55.250Z,51.25
2023-01-07T15:07:28.087Z,51.95
2023-01-07T15:10:18.731Z,52.34
2023-01-07T15:13:09.003Z,52.52
2023-01-07T15:15:59.144Z,52.58
2023-01-07T15:18:27.235Z,52.62
2023-01-07T15:21:09.139Z,52.73
2023-01-07T15:23:46.517Z,53.66
2023-01-07T15:26:22.202Z,55.45
2023-01-07T15:28:56.019Z,56.02
2023-01-07T15:31:30.269Z,55.27
2023-01-07T15:34:11.945Z,56.18
2023-01-07T15:36:43.539Z,56.25
2023-01-07T15:39:20.774Z,56.08
2023-01-07T15:41:52.561Z,55.94
2023-01-07T15:44:24.639Z,55.88
2023-01-07T15:46:52.779Z,56.07
2023-01-07T15:49:23.628Z,55.85
2023-01-07T15:51:54.688Z,56.00
2023-01-07T15:54:35.421Z,56.14
2023-01-07T15:57:09.574Z,57.79
2023-01-07T15:59:42.608Z,57.93
2023-01-07T16:02:24.560Z,58.63
2023-01-07T16:04:57.112Z,58.79
2023-01-07T16:07:29.243Z,58.73
2023-01-07T16:09:58.677Z,60.45
2023-01-07T16:12:34.483Z,59.61
2023-01-07T16:15:04.693Z,60.01
2023-01-07T16:17:33.180Z,60.97
2023-01-07T16:20:11.449Z,59.94
2023-01-07T16:22:41.891Z,60.57
2023-01-07T16:25:15.220Z,60.69
2023-01-07T16:27:45.025Z,61.57
2023-01-07T16:30:16.323Z,61.34
2023-01-07T16:32:45.408Z,62.26
2023-01-07T16:35:19.832Z,63.24
2023-01-07T16:37:50.069Z,65.05
2023-01-07T16:40:24.049Z,64.36
2023-01-07T16:42:53.699Z,64.74
2023-01-07T16:45:28.386Z,65.63
2023-01-07T16:48:20.085Z,63.79
2023-01-07T16:50:49.931Z,64.48
2023-01-07T16:53:27.875Z,64.37
2023-01-07T16:56:10.748Z,64.09
2023-01-07T16:58:42.784Z,64.59
2023-01-07T17:01:12.133Z,64.12
2023-01-07T17:03:52.750Z,62.94
2023-01-07T17:06:25.876Z,62.09
2023-01-07T17:08:56.589Z,62.19
2023-01-07T17:11:30.688Z,62.02
2023-01-07T17:14:00.409Z,62.98
2023-01-07T17:16:33.047Z,62.66
2023-01-07T17:19:25.643Z,63.06
2023-01-07T17:21:54.391Z,65.14
2023-01-07T17:24:47.629Z,65.12
2023-01-07T17:27:26.980Z,65.20
2023-01-07T17:29:57.420Z,65.35
2023-01-07T17:32:25.505Z,65.35
2023-01-07T17:34:53.489Z,64.39
2023-01-07T17:37:21.596Z,64.40
2023-01-07T17:39:51.326Z,65.27
2023-01-07T17:42:42.385Z,65.72
2023-01-07T17:45:17.238Z,66.82
2023-01-07T17:47:46.456Z,67.29
2023-01-07T17:50:16.092Z,65.98
2023-01-07T17:52:46.897Z,67.72
2023-01-07T17:55:16.789Z,67.06
2023-01-07T17:57:45.160Z,65.74
2023-01-07T18:00:21.058Z,68.68
2023-01-07T18:02:49.638Z,67.19
2023-01-07T18:05:19.940Z,67.44
2023-01-07T18:07:48.564Z,67.37
2023-01-07T18:10:18.660Z,66.00
2023-01-07T18:12:46.304Z,65.39
2023-01-07T18:15:25.153Z,65.59
2023-01-07T18:17:54.070Z,66.08
2023-01-07T18:20:23.520Z,66.70
2023-01-07T18:22:54.398Z,68.11
2023-01-07T18:25:23.808Z,67.21
2023-01-07T18:27:53.284Z,67.40
2023-01-07T18:30:23.925Z,66.25
2023-01-07T18:32:53.886Z,66.67
2023-01-07T18:35:24.947Z,66.91
2023-01-07T18:37:53.340Z,66.73
2023-01-07T18:40:21.908Z,66.27
2023-01-07T18:42:50.606Z,67.57
2023-01-07T18:45:18.936Z,66.96
2023-01-07T18:47:48.595Z,65.75
2023-01-07T18:50:17.697Z,65.85
2023-01-07T18:52:45.680Z,66.38
2023-01-07T18:55:16.104Z,65.84
2023-01-07T18:57:44.401Z,66.41
2023-01-07T19:00:13.664Z,66.65
2023-01-07T19:02:42.001Z,68.67
2023-01-07T19:05:11.550Z,68.43
2023-01-07T19:07:39.679Z,68.82
2023-01-07T19:10:08.611Z,70.06
2023-01-07T19:12:36.630Z,70.16
2023-01-07T19:15:05.013Z,69.22
2023-01-07T19:17:33.090Z,68.77
2023-01-07T19:20:01.886Z,68.34
2023-01-07T19:22:31.283Z,69.25
2023-01-07T19:24:59.227Z,68.81
2023-01-07T19:27:27.287Z,68.45
2023-01-07T19:29:55.254Z,68.99
2023-01-07T19:32:23.354Z,69.05
2023-01-07T19:34:52.985Z,68.18
2023-01-07T19:37:22.087Z,68.40
2023-01-07T19:39:51.653Z,69.98
2023-01-07T19:42:19.662Z,68.91
2023-01-07T19:44:47.645Z,69.25
2023-01-07T19:47:17.198Z,68.86
2023-01-07T19:49:45.588Z,68.84
2023-01-07T19:52:13.766Z,69.44
2023-01-07T19:54:42.281Z,69.30
2023-01-07T19:57:11.939Z,68.70
2023-01-07T19:59:39.927Z,68.30
2023-01-07T20:02:08.163Z,69.22
2023-01-07T20:04:36.471Z,69.85
2023-01-07T20:07:04.616Z,72.44
2023-01-07T20:09:32.927Z,71.77
2023-01-07T20:12:01.096Z,71.45
2023-01-07T20:14:30.521Z,73.57
2023-01-07T20:16:58.662Z,72.99
2023-01-07T20:19:27.258Z,71.95
2023-01-07T20:21:55.217Z,71.00
2023-01-07T20:24:23.199Z,71.62
2023-01-07T20:26:53.189Z,73.29
2023-01-07T20:29:22.529Z,73.03
2023-01-07T20:31:51.926Z,72.16
2023-01-07T20:34:20.048Z,71.55
2023-01-07T20:36:48.020Z,71.13
2023-01-07T20:39:16.296Z,71.02
2023-01-07T20:41:44.527Z,70.54
2023-01-07T20:44:13.331Z,72.30
2023-01-07T20:46:41.895Z,72.11
2023-01-07T20:49:12.552Z,72.55
2023-01-07T20:51:40.853Z,71.14
2023-01-07T20:54:09.129Z,71.89
2023-01-07T20:56:37.321Z,71.24
2023-01-07T20:59:05.568Z,72.48
2023-01-07T21:01:33.953Z,71.44
2023-01-07T21:04:03.041Z,72.76
2023-01-07T21:06:32.737Z,74.45
2023-01-07T21:09:01.137Z,73.31
2023-01-07T21:11:29.177Z,73.20
2023-01-07T21:13:57.152Z,71.99
2023-01-07T21:16:26.063Z,72.41
2023-01-07T21:18:54.320Z,71.53
2023-01-07T21:21:25.319Z,71.41
2023-01-07T21:23:55.547Z,71.72
2023-01-07T21:26:26.101Z,71.57
2023-01-07T21:28:56.049Z,73.99
2023-01-07T21:31:25.192Z,73.64
2023-01-07T21:33:56.497Z,72.89
2023-01-07T21:36:25.935Z,72.94
2023-01-07T21:38:56.793Z,74.62
2023-01-07T21:41:25.647Z,75.20
2023-01-07T21:43:53.713Z,76.22
2023-01-07T21:46:22.603Z,77.04
2023-01-07T21:48:51.868Z,76.29
2023-01-07T21:51:22.221Z,75.26
2023-01-07T21:53:52.150Z,74.41
2023-01-07T21:56:21.740Z,73.45
2023-01-07T21:58:50.633Z,74.11
2023-01-07T22:01:20.111Z,74.29
2023-01-07T22:03:49.902Z,73.17
2023-01-07T22:06:20.819Z,72.75
2023-01-07T22:08:49.217Z,72.52
2023-01-07T22:11:18.982Z,72.51
2023-01-07T22:13:52.920Z,72.78
2023-01-07T22:16:21.474Z,73.13
2023-01-07T22:18:49.716Z,72.92
2023-01-07T22:21:18.667Z,72.80
2023-01-07T22:23:47.569Z,72.68
2023-01-07T22:26:17.658Z,72.23
2023-01-07T22:28:50.012Z,72.92
2023-01-07T22:31:22.303Z,72.70
2023-01-07T22:33:50.428Z,72.39
2023-01-07T22:36:23.181Z,72.32
2023-01-07T22:38:52.808Z,73.41
2023-01-07T22:41:20.999Z,72.76
2023-01-07T22:43:49.092Z,72.56
2023-01-07T22:46:22.908Z,72.63
2023-01-07T22:48:51.213Z,73.11
2023-01-07T22:51:25.014Z,72.30
2023-01-07T22:53:56.278Z,72.24
2023-01-07T22:56:24.699Z,72.66
2023-01-07T22:58:52.773Z,73.07
2023-01-07T23:01:22.512Z,72.72
2023-01-07T23:03:50.516Z,73.01
2023-01-07T23:06:18.720Z,73.67
2023-01-07T23:08:46.783Z,72.84
2023-01-07T23:11:35.289Z,73.24
2023-01-07T23:14:03.865Z,73.17
2023-01-07T23:16:33.524Z,72.43
2023-01-07T23:19:01.664Z,73.61
2023-01-07T23:21:31.509Z,74.67
2023-01-07T23:23:59.883Z,74.22
2023-01-07T23:26:27.991Z,73.97
2023-01-07T23:28:55.975Z,74.51
2023-01-07T23:31:24.070Z,74.39
2023-01-07T23:33:53.663Z,73.90
2023-01-07T23:36:21.627Z,73.19
2023-01-07T23:38:49.623Z,73.77
2023-01-07T23:41:18.280Z,72.39
2023-01-07T23:43:46.507Z,72.54
2023-01-07T23:46:14.599Z,72.61
2023-01-07T23:48:42.919Z,74.61
2023-01-07T23:51:14.503Z,74.02
2023-01-07T23:53:42.648Z,73.79
2023-01-07T23:56:10.953Z,73.77
2023-01-07T23:58:39.929Z,73.01
